aviador You're here:

LEAS Decoded Metar

ASTURIAS in SPAIN
Report Time2017-11-21 04:00:00
UTC Time2017-11-21 04:28:06
Flight Rules vfr VFR
Wind240° at 09 kt
W.Decomp.*RWY 29: 6.1 kt HW 6.6 kt LCW
W.Rank240° ranks 1
Current wind is above 240° avg. (6.5)
Visibility9999 m
Phenomena:N/A
Clouds:N/A
Expected CloudBase > 2,800 ft AGL from Temp-Dew spread
CeilingNone
Temp10°C (ISA -4)
Dew Point03°C (62% RH)
AAT5.3°C
QNH1019 hPa
Density Alt-151 ft
Elevation440 ft
Report Wrong Elevation
Raw Report
LEAS 210400Z AUTO 24009KT 9999 NCD 10/03 Q1019=

Extra information for LEAS:More info

Metar Taf Metar & Taf Last 4 Metars F.Rules Stats Wind Profile Meteogram Temp Stats Airport Information Weather charts Add Link Nearby VenuesMetar ALERT Operation Metar Decoded Social comments